Time;durP1;ratioP1;P1;durP2;ratioP2;P2;SDS_P1;SDS_P2;PMS_P1;PMS_P2;Temp;Humidity;BMP_temperature;BMP_pressure;BME280_temperature;BME280_humidity;BME280_pressure;Samples;Min_cycle;Max_cycle;Signal;HPM_P1;HPM_P2
2024/03/21 00:01:39;;;;;;;31.23;17.60;;;;;;;8.26;57.66;100685.91;5136500;27;20100;-50
2024/03/21 00:04:05;;;;;;;30.98;16.65;;;;;;;8.32;57.70;100685.63;5136717;27;20098;-46
2024/03/21 00:06:33;;;;;;;34.28;18.38;;;;;;;8.24;56.86;100677.13;5136480;27;20562;-46
2024/03/21 00:08:59;;;;;;;31.20;17.77;;;;;;;8.31;56.99;100672.41;5136470;27;20388;-49
2024/03/21 00:11:28;;;;;;;34.38;17.95;;;;;;;8.31;57.52;100685.72;5136446;27;20518;-48
2024/03/21 00:13:54;;;;;;;34.60;18.90;;;;;;;8.18;57.74;100687.16;5136826;27;20387;-47
2024/03/21 00:16:22;;;;;;;37.45;19.67;;;;;;;8.12;58.11;100687.44;5136675;27;20146;-50
2024/03/21 00:18:48;;;;;;;34.13;18.58;;;;;;;8.16;58.47;100694.34;5136701;27;20047;-47
2024/03/21 00:21:15;;;;;;;35.97;18.65;;;;;;;8.13;58.75;100683.84;5136476;27;20039;-47
2024/03/21 00:23:42;;;;;;;38.80;18.58;;;;;;;8.06;58.98;100682.38;5136628;27;20082;-48
2024/03/21 00:26:11;;;;;;;36.60;18.55;;;;;;;8.08;59.34;100685.81;5136323;27;20042;-51
2024/03/21 00:28:41;;;;;;;36.35;19.15;;;;;;;8.03;59.75;100676.28;5136497;27;20058;-51
2024/03/21 00:31:09;;;;;;;38.03;18.80;;;;;;;8.03;60.20;100675.41;5136381;27;20039;-47
2024/03/21 00:33:35;;;;;;;37.53;18.63;;;;;;;8.03;59.99;100673.63;5133326;27;20417;-46
2024/03/21 00:36:04;;;;;;;34.15;18.77;;;;;;;8.02;60.02;100669.25;5134162;27;20049;-47
2024/03/21 00:38:30;;;;;;;35.67;18.38;;;;;;;7.98;60.47;100661.44;5133718;27;20047;-47
2024/03/21 00:40:58;;;;;;;38.20;18.90;;;;;;;7.97;60.03;100663.25;5133438;27;20054;-46
2024/03/21 00:43:25;;;;;;;34.78;17.77;;;;;;;7.88;60.60;100663.63;5133191;27;20067;-49
2024/03/21 00:45:53;;;;;;;36.15;18.83;;;;;;;7.90;60.57;100656.47;5133673;27;20087;-48
2024/03/21 00:48:20;;;;;;;40.00;18.58;;;;;;;7.78;60.76;100661.44;5133788;27;20549;-49
2024/03/21 00:50:47;;;;;;;36.35;18.27;;;;;;;7.92;60.68;100656.41;5132860;27;20043;-49
2024/03/21 00:53:13;;;;;;;37.33;18.17;;;;;;;7.93;60.73;100648.38;5132873;27;20533;-47
2024/03/21 00:55:40;;;;;;;35.75;18.95;;;;;;;7.88;61.67;100644.19;5132701;27;20090;-48
2024/03/21 00:58:07;;;;;;;37.00;18.35;;;;;;;7.50;63.44;100651.09;5132682;27;20054;-49
2024/03/21 01:00:36;;;;;;;38.13;18.63;;;;;;;7.40;63.94;100646.16;5132614;27;20480;-49
2024/03/21 01:03:04;;;;;;;36.63;20.10;;;;;;;7.56;64.01;100640.25;5133689;27;20058;-48
2024/03/21 01:05:34;;;;;;;43.80;20.67;;;;;;;7.61;64.03;100632.94;5133639;27;20047;-50
2024/03/21 01:08:01;;;;;;;36.25;20.27;;;;;;;7.55;64.49;100627.91;5133166;27;20103;-49
2024/03/21 01:10:28;;;;;;;38.95;19.90;;;;;;;7.54;64.55;100623.53;5132385;27;20123;-48
2024/03/21 01:12:55;;;;;;;40.83;20.10;;;;;;;7.61;64.41;100628.47;5132513;27;20495;-50
2024/03/21 01:15:22;;;;;;;38.97;19.95;;;;;;;7.60;64.49;100632.06;5132243;27;20484;-48
2024/03/21 01:17:51;;;;;;;37.60;19.67;;;;;;;7.57;64.79;100631.34;5132747;27;20079;-50
2024/03/21 01:20:20;;;;;;;42.33;21.48;;;;;;;7.42;65.87;100630.16;5132529;27;20436;-48
2024/03/21 01:22:48;;;;;;;43.88;23.48;;;;;;;7.32;66.45;100626.16;5132364;27;20560;-47
2024/03/21 01:25:15;;;;;;;47.80;24.73;;;;;;;7.20;66.96;100622.22;5132716;27;20123;-48
2024/03/21 01:27:43;;;;;;;46.65;26.17;;;;;;;7.23;66.81;100619.44;5132988;27;20137;-49
2024/03/21 01:30:10;;;;;;;47.42;25.13;;;;;;;7.32;66.43;100620.84;5132464;27;20059;-48
2024/03/21 01:32:38;;;;;;;47.53;24.83;;;;;;;7.29;66.57;100627.16;5132136;27;20045;-48
2024/03/21 01:35:07;;;;;;;50.10;24.88;;;;;;;7.18;68.10;100629.41;5131956;27;20527;-46
2024/03/21 01:37:36;;;;;;;45.47;23.75;;;;;;;7.23;67.82;100632.72;5131854;27;20572;-48
2024/03/21 01:40:06;;;;;;;44.47;23.42;;;;;;;7.27;66.94;100629.03;5132124;27;20043;-48
2024/03/21 01:42:33;;;;;;;48.38;25.17;;;;;;;7.27;66.98;100628.16;5131899;27;20043;-46
2024/03/21 01:45:02;;;;;;;46.30;23.52;;;;;;;7.31;66.64;100624.44;5130578;27;20078;-46
2024/03/21 01:47:31;;;;;;;46.72;23.83;;;;;;;7.25;67.19;100625.56;5131809;27;20085;-48
2024/03/21 01:49:58;;;;;;;49.90;24.38;;;;;;;7.24;67.29;100629.16;5132008;27;20054;-47
2024/03/21 01:52:27;;;;;;;46.05;24.05;;;;;;;7.23;68.01;100624.75;5131898;27;20043;-49
2024/03/21 01:54:56;;;;;;;45.67;23.65;;;;;;;7.33;67.69;100623.44;5131913;27;20089;-49
2024/03/21 01:57:25;;;;;;;45.33;23.73;;;;;;;7.31;67.66;100617.34;5131754;27;20055;-47
2024/03/21 01:59:52;;;;;;;43.28;22.63;;;;;;;7.40;67.38;100624.06;5131664;27;20047;-48
2024/03/21 02:02:20;;;;;;;42.83;22.90;;;;;;;7.34;67.49;100619.91;5131374;27;20072;-48
2024/03/21 02:04:46;;;;;;;44.88;22.35;;;;;;;7.27;67.46;100617.53;5131227;27;20039;-47
2024/03/21 02:07:16;;;;;;;43.83;22.83;;;;;;;7.25;67.83;100620.28;5131473;27;20212;-48
2024/03/21 02:09:42;;;;;;;44.35;23.63;;;;;;;7.29;68.04;100619.19;5131376;27;20326;-49
2024/03/21 02:12:12;;;;;;;46.88;22.00;;;;;;;7.29;68.23;100621.84;5131611;27;20096;-47
2024/03/21 02:14:39;;;;;;;42.38;22.65;;;;;;;7.34;68.44;100619.91;5131088;27;20450;-49
2024/03/21 02:17:07;;;;;;;46.17;22.20;;;;;;;7.34;68.52;100616.38;5131045;27;20043;-48
2024/03/21 02:19:33;;;;;;;44.60;22.38;;;;;;;7.31;68.25;100614.69;5131031;27;20044;-50
2024/03/21 02:24:46;;;;;;;42.08;21.80;;;;;;;7.29;68.40;100621.00;5133769;27;20051;-50
2024/03/21 02:27:13;;;;;;;40.58;21.25;;;;;;;7.32;68.14;100612.91;5134278;27;20086;-50
2024/03/21 02:29:40;;;;;;;40.72;21.80;;;;;;;7.34;68.13;100609.28;5132042;27;20050;-49
2024/03/21 02:32:07;;;;;;;38.30;21.90;;;;;;;7.37;68.35;100603.84;5131672;27;20520;-51
2024/03/21 02:34:34;;;;;;;43.95;22.17;;;;;;;7.35;68.73;100613.66;5134429;27;20452;-51
2024/03/21 02:37:02;;;;;;;45.80;22.60;;;;;;;7.33;68.88;100607.53;5131396;27;20040;-50
2024/03/21 02:39:29;;;;;;;46.38;23.75;;;;;;;7.38;68.66;100605.56;5131050;27;20047;-47
2024/03/21 02:41:57;;;;;;;43.63;23.42;;;;;;;7.34;68.77;100614.59;5130911;27;20047;-50
2024/03/21 02:44:25;;;;;;;46.20;23.58;;;;;;;7.24;69.62;100607.94;5130770;27;20043;-50
2024/03/21 02:46:52;;;;;;;45.67;23.63;;;;;;;7.21;69.81;100610.69;5130624;27;20039;-45
2024/03/21 02:49:18;;;;;;;42.00;23.40;;;;;;;7.21;69.66;100607.19;5130822;27;20050;-48
2024/03/21 02:51:45;;;;;;;43.60;23.80;;;;;;;7.15;70.28;100609.16;5130850;27;20096;-45
2024/03/21 02:54:13;;;;;;;48.53;24.73;;;;;;;7.06;70.62;100604.22;5130627;27;20043;-49
2024/03/21 02:56:40;;;;;;;48.53;24.90;;;;;;;7.12;70.35;100603.09;5130261;27;20088;-47
2024/03/21 02:59:07;;;;;;;44.03;24.65;;;;;;;6.92;70.65;100601.25;5130248;27;20051;-48
2024/03/21 03:01:34;;;;;;;47.80;25.02;;;;;;;7.05;70.46;100604.28;5130570;27;20107;-47
2024/03/21 03:04:02;;;;;;;50.10;26.17;;;;;;;7.03;70.39;100599.03;5130390;27;20047;-49
2024/03/21 03:06:30;;;;;;;47.15;26.08;;;;;;;6.96;70.61;100602.88;5130548;27;20384;-47
2024/03/21 03:08:56;;;;;;;47.88;25.25;;;;;;;6.96;70.39;100599.34;5130449;27;20047;-47
2024/03/21 03:11:25;;;;;;;48.55;25.92;;;;;;;6.92;70.71;100595.06;5130428;27;20043;-49
2024/03/21 03:13:51;;;;;;;53.67;26.70;;;;;;;6.93;70.84;100596.81;5130141;27;20047;-48
2024/03/21 03:16:19;;;;;;;49.92;25.33;;;;;;;7.02;70.51;100593.78;5130343;27;20047;-48
2024/03/21 03:18:45;;;;;;;49.22;26.27;;;;;;;7.02;70.41;100592.00;5130493;27;20047;-49
2024/03/21 03:21:12;;;;;;;49.38;26.20;;;;;;;6.97;70.39;100598.44;5130325;28;20507;-47
2024/03/21 03:23:38;;;;;;;49.95;25.50;;;;;;;6.95;70.50;100590.53;5130193;28;20044;-48
2024/03/21 03:26:06;;;;;;;52.55;26.48;;;;;;;6.86;70.81;100591.75;5130266;28;20047;-48
2024/03/21 03:28:33;;;;;;;53.53;26.02;;;;;;;6.87;70.85;100592.63;5130274;28;20092;-50
2024/03/21 03:31:01;;;;;;;47.50;26.08;;;;;;;6.83;71.21;100591.84;5130355;28;20047;-50
2024/03/21 03:36:12;;;;;;;47.33;25.48;;;;;;;6.73;71.73;100597.59;5132685;28;20065;-50
2024/03/21 03:38:40;;;;;;;50.55;27.20;;;;;;;6.72;71.67;100599.38;5133605;28;20093;-50
2024/03/21 03:41:07;;;;;;;47.33;25.33;;;;;;;6.59;71.61;100599.00;5130003;28;20055;-51
2024/03/21 03:43:35;;;;;;;52.40;26.30;;;;;;;6.65;71.87;100597.88;5130172;28;20051;-49
2024/03/21 03:46:02;;;;;;;44.13;24.92;;;;;;;6.75;71.60;100603.69;5130201;28;20040;-53
2024/03/21 03:48:30;;;;;;;48.10;24.65;;;;;;;6.76;71.23;100600.13;5129921;28;20401;-51
2024/03/21 03:50:57;;;;;;;54.47;26.38;;;;;;;6.62;71.72;100605.97;5129732;28;20054;-48
2024/03/21 03:53:23;;;;;;;50.47;26.30;;;;;;;6.61;71.76;100601.59;5129703;28;20043;-49
2024/03/21 03:55:51;;;;;;;53.55;27.05;;;;;;;6.67;71.36;100605.78;5129669;28;20598;-47
2024/03/21 03:58:18;;;;;;;48.80;25.67;;;;;;;6.53;71.96;100604.50;5129922;28;20092;-51
2024/03/21 04:00:45;;;;;;;49.90;25.88;;;;;;;6.47;71.66;100607.41;5129905;28;20176;-47
2024/03/21 04:03:13;;;;;;;47.83;25.33;;;;;;;6.50;72.09;100611.72;5129680;28;20410;-45
2024/03/21 04:05:39;;;;;;;43.67;23.75;;;;;;;6.56;71.78;100615.03;5129613;28;20086;-49
2024/03/21 04:08:06;;;;;;;46.17;24.63;;;;;;;6.51;71.89;100611.66;5130909;27;20094;-49
2024/03/21 04:10:33;;;;;;;44.13;23.48;;;;;;;6.48;71.84;100616.22;5133494;27;20108;-49
2024/03/21 04:13:03;;;;;;;44.47;23.83;;;;;;;6.54;71.18;100621.28;5133772;27;20116;-49
2024/03/21 04:15:29;;;;;;;44.03;23.50;;;;;;;6.54;71.60;100621.28;5133382;27;20054;-49
2024/03/21 04:17:58;;;;;;;52.25;24.52;;;;;;;6.49;71.57;100617.94;5133421;27;20048;-47
2024/03/21 04:20:24;;;;;;;51.58;25.25;;;;;;;6.52;71.51;100618.69;5133409;27;20069;-49
2024/03/21 04:22:56;;;;;;;46.72;24.70;;;;;;;6.52;72.07;100620.47;5133371;27;20040;-46
2024/03/21 04:25:22;;;;;;;49.33;24.20;;;;;;;6.52;72.31;100609.88;5133312;27;20065;-46
2024/03/21 04:27:50;;;;;;;55.47;24.90;;;;;;;6.56;72.09;100619.44;5133411;27;20400;-51
2024/03/21 04:30:16;;;;;;;47.20;24.27;;;;;;;6.48;72.86;100621.53;5133742;27;20051;-49
2024/03/21 04:32:43;;;;;;;47.20;24.40;;;;;;;6.49;72.25;100617.94;5133416;27;20469;-49
2024/03/21 04:35:11;;;;;;;49.75;25.52;;;;;;;6.43;72.54;100620.81;5133181;27;20050;-50
2024/03/21 04:37:38;;;;;;;47.33;24.52;;;;;;;6.47;72.52;100625.97;5134469;27;20047;-47
2024/03/21 04:40:07;;;;;;;50.83;25.08;;;;;;;6.43;72.38;100624.34;5133194;27;20055;-49
2024/03/21 04:42:36;;;;;;;48.28;24.90;;;;;;;6.41;71.94;100627.97;5133046;27;20131;-48
2024/03/21 04:45:04;;;;;;;47.70;24.85;;;;;;;6.44;71.96;100627.84;5133142;27;20150;-48
2024/03/21 04:47:30;;;;;;;49.65;25.42;;;;;;;6.51;72.52;100627.56;5132725;27;20051;-46
2024/03/21 04:49:58;;;;;;;46.72;23.65;;;;;;;6.52;72.50;100624.00;5132852;27;20261;-48
2024/03/21 04:52:27;;;;;;;48.90;24.45;;;;;;;6.49;72.44;100628.56;5133061;27;20047;-49
2024/03/21 04:54:54;;;;;;;43.83;22.38;;;;;;;6.54;72.40;100634.53;5132588;27;20484;-47
2024/03/21 04:57:20;;;;;;;44.92;24.13;;;;;;;6.53;72.55;100632.81;5132631;27;20383;-48
2024/03/21 04:59:48;;;;;;;51.58;24.20;;;;;;;6.60;72.35;100631.66;5132727;27;20051;-47
2024/03/21 05:02:14;;;;;;;52.60;23.25;;;;;;;6.60;72.46;100634.31;5115329;27;20050;-47
2024/03/21 05:04:41;;;;;;;44.00;24.13;;;;;;;6.60;72.38;100642.25;5132239;27;20057;-50
2024/03/21 05:07:10;;;;;;;52.25;25.63;;;;;;;6.64;72.32;100632.41;5132600;27;20055;-50
2024/03/21 05:09:39;;;;;;;46.72;23.90;;;;;;;6.64;72.62;100637.69;5132258;27;20043;-50
2024/03/21 05:12:07;;;;;;;48.17;23.90;;;;;;;6.66;72.40;100635.84;5132344;27;20039;-49
2024/03/21 05:14:34;;;;;;;45.08;24.33;;;;;;;6.73;72.32;100642.66;5132066;27;20043;-51
2024/03/21 05:17:03;;;;;;;44.28;24.58;;;;;;;6.78;72.17;100646.88;5132270;27;20047;-47
2024/03/21 05:19:30;;;;;;;47.17;24.63;;;;;;;6.83;71.95;100650.19;5132068;27;20079;-52
2024/03/21 05:21:57;;;;;;;47.70;24.30;;;;;;;6.88;72.41;100652.69;5132516;27;20491;-49
2024/03/21 05:24:24;;;;;;;52.92;24.33;;;;;;;6.80;72.80;100646.81;5132484;27;20076;-50
2024/03/21 05:26:52;;;;;;;51.05;25.13;;;;;;;6.84;72.55;100651.91;5132225;27;20066;-49
2024/03/21 05:29:19;;;;;;;58.08;24.05;;;;;;;6.93;72.12;100648.06;5131850;27;20069;-52
2024/03/21 05:31:46;;;;;;;52.92;26.25;;;;;;;6.88;72.64;100652.69;5132032;27;20043;-48
2024/03/21 05:34:12;;;;;;;48.47;25.45;;;;;;;6.94;72.17;100652.44;5132219;27;20403;-51
2024/03/21 05:36:40;;;;;;;53.30;26.60;;;;;;;7.05;72.06;100649.38;5131911;27;20047;-49
2024/03/21 05:39:08;;;;;;;82.93;40.17;;;;;;;7.12;71.77;100645.53;5132102;27;20502;-48
2024/03/21 05:41:35;;;;;;;59.05;29.65;;;;;;;7.05;71.74;100638.78;5132080;27;20079;-44
2024/03/21 05:44:03;;;;;;;53.97;27.02;;;;;;;6.87;71.74;100645.66;5131751;27;20488;-48
2024/03/21 05:46:30;;;;;;;55.05;28.33;;;;;;;6.69;72.91;100641.91;5131800;27;20043;-49
2024/03/21 05:48:56;;;;;;;62.30;30.90;;;;;;;6.64;73.12;100643.00;5131912;27;20054;-50
2024/03/21 05:51:24;;;;;;;65.43;30.08;;;;;;;6.56;73.27;100643.28;5132018;27;20051;-49
2024/03/21 05:53:50;;;;;;;59.28;29.25;;;;;;;6.75;72.50;100641.66;5132097;27;20043;-49
2024/03/21 05:56:18;;;;;;;64.03;30.88;;;;;;;6.70;72.67;100640.13;5131628;27;20055;-47
2024/03/21 05:58:44;;;;;;;64.63;30.48;;;;;;;6.80;72.34;100636.22;5131433;27;20043;-48
2024/03/21 06:01:32;;;;;;;60.50;30.08;;;;;;;6.67;73.24;100641.13;5131559;27;20078;-48
2024/03/21 06:03:59;;;;;;;57.88;31.10;;;;;;;7.05;71.99;100641.44;5131384;27;20074;-46
2024/03/21 06:06:26;;;;;;;64.90;29.95;;;;;;;7.32;70.72;100629.69;5131632;27;20396;-49
2024/03/21 06:08:52;;;;;;;59.22;30.35;;;;;;;7.50;69.99;100632.50;5131494;27;20068;-50
2024/03/21 06:11:23;;;;;;;57.78;29.55;;;;;;;7.71;69.08;100642.22;5131304;27;20074;-48
2024/03/21 06:13:50;;;;;;;57.60;30.38;;;;;;;7.98;68.09;100638.41;5131425;27;20097;-46
2024/03/21 06:16:18;;;;;;;58.00;30.05;;;;;;;8.15;67.65;100634.16;5131358;27;20100;-47
2024/03/21 06:18:45;;;;;;;58.78;30.70;;;;;;;8.32;66.79;100642.25;5114525;27;20126;-48
2024/03/21 06:21:12;;;;;;;60.72;28.58;;;;;;;8.48;65.93;100637.13;5131236;27;20126;-47
2024/03/21 06:23:38;;;;;;;53.67;27.95;;;;;;;8.31;65.54;100644.03;5130815;27;20054;-49
2024/03/21 06:26:05;;;;;;;59.25;27.33;;;;;;;8.44;63.81;100640.88;5131111;27;20047;-48
2024/03/21 06:28:32;;;;;;;51.67;25.67;;;;;;;8.35;62.45;100644.78;5131119;27;20046;-46
2024/03/21 06:30:59;;;;;;;47.78;24.40;;;;;;;8.42;61.95;100648.06;5130606;27;20134;-51
2024/03/21 06:33:26;;;;;;;49.58;24.25;;;;;;;8.55;61.47;100647.41;5131422;27;20126;-48
2024/03/21 06:35:54;;;;;;;52.28;25.38;;;;;;;8.73;61.00;100648.38;5131605;27;20047;-46
2024/03/21 06:38:20;;;;;;;46.28;23.65;;;;;;;9.05;59.76;100651.31;5131865;27;20047;-48
2024/03/21 06:40:47;;;;;;;41.55;24.27;;;;;;;9.22;59.36;100640.72;5131095;27;20723;-48
2024/03/21 06:43:14;;;;;;;46.72;23.73;;;;;;;9.10;58.47;100647.50;5131044;27;20039;-48
2024/03/21 06:45:41;;;;;;;47.28;25.33;;;;;;;8.96;58.76;100649.94;5131039;27;20162;-48
2024/03/21 06:48:08;;;;;;;51.88;26.00;;;;;;;8.86;59.95;100651.31;5130784;27;20116;-48
2024/03/21 06:50:37;;;;;;;49.33;26.10;;;;;;;9.02;60.30;100655.00;5130897;27;20055;-48
2024/03/21 06:53:03;;;;;;;49.08;25.83;;;;;;;9.22;59.76;100650.50;5130823;27;20495;-48
2024/03/21 06:55:30;;;;;;;47.17;26.25;;;;;;;9.01;59.35;100658.59;5130648;27;20043;-46
2024/03/21 06:57:57;;;;;;;47.70;25.13;;;;;;;8.88;59.51;100662.78;5130813;27;20050;-47
2024/03/21 07:00:26;;;;;;;49.00;25.58;;;;;;;8.80;58.96;100660.47;5130482;27;20139;-50
2024/03/21 07:02:52;;;;;;;47.25;25.08;;;;;;;8.50;59.75;100665.38;5130815;27;20051;-46
2024/03/21 07:05:20;;;;;;;49.72;24.83;;;;;;;8.66;59.45;100662.88;5130692;27;20103;-48
2024/03/21 07:07:48;;;;;;;46.63;24.33;;;;;;;8.86;58.29;100665.47;5130689;27;20047;-50
2024/03/21 07:10:15;;;;;;;45.22;23.98;;;;;;;9.22;58.07;100671.81;5130549;27;20043;-48
2024/03/21 07:12:41;;;;;;;44.10;23.90;;;;;;;9.42;56.79;100669.91;5130619;27;20047;-47
2024/03/21 07:15:09;;;;;;;42.10;22.92;;;;;;;9.44;56.45;100672.47;5130185;27;20497;-46
2024/03/21 07:17:35;;;;;;;44.25;23.00;;;;;;;9.58;56.14;100669.16;5133677;27;20062;-49
2024/03/21 07:20:03;;;;;;;41.38;22.15;;;;;;;9.45;54.97;100663.56;5130978;27;20082;-49
2024/03/21 07:22:31;;;;;;;42.85;22.73;;;;;;;9.45;54.98;100671.53;5130017;28;20043;-48
2024/03/21 07:25:00;;;;;;;40.03;20.67;;;;;;;9.55;54.63;100669.28;5130287;28;20066;-47
2024/03/21 07:27:27;;;;;;;45.22;21.63;;;;;;;9.57;53.85;100668.31;5130291;28;20047;-45
2024/03/21 07:29:54;;;;;;;39.58;20.52;;;;;;;9.77;53.14;100663.78;5130377;28;20050;-48
2024/03/21 07:32:20;;;;;;;39.55;20.60;;;;;;;9.92;52.40;100666.50;5130453;28;20051;-46
2024/03/21 07:34:50;;;;;;;38.03;20.25;;;;;;;10.19;50.72;100655.38;5130627;28;20078;-49
2024/03/21 07:37:17;;;;;;;43.67;20.63;;;;;;;10.40;50.79;100656.09;5130376;28;20047;-48
2024/03/21 07:39:44;;;;;;;38.13;20.50;;;;;;;10.60;50.06;100658.53;5130202;28;20495;-48
2024/03/21 07:42:11;;;;;;;39.35;19.40;;;;;;;10.60;49.76;100672.75;5131881;27;20084;-49
2024/03/21 07:44:39;;;;;;;39.55;19.98;;;;;;;10.84;49.25;100665.25;5134939;27;20051;-52
2024/03/21 07:47:05;;;;;;;34.70;18.75;;;;;;;11.06;49.11;100658.72;5134964;27;20050;-46
2024/03/21 07:49:32;;;;;;;39.03;18.30;;;;;;;11.27;48.50;100661.97;5134526;27;20053;-46
2024/03/21 07:52:01;;;;;;;37.10;19.00;;;;;;;11.20;49.03;100663.28;5134172;27;20411;-47
2024/03/21 07:54:29;;;;;;;37.85;19.13;;;;;;;11.22;48.98;100664.06;5134305;27;20046;-48
2024/03/21 07:56:57;;;;;;;39.33;20.42;;;;;;;11.46;48.67;100663.50;5134324;27;20434;-47
2024/03/21 07:59:26;;;;;;;39.22;20.60;;;;;;;11.42;48.89;100672.66;5117263;27;20145;-47
2024/03/21 08:01:52;;;;;;;39.42;20.88;;;;;;;11.41;49.31;100656.72;5133901;27;20047;-45
2024/03/21 08:04:19;;;;;;;40.33;21.40;;;;;;;11.63;48.88;100659.03;5134078;27;20043;-47
2024/03/21 08:06:46;;;;;;;38.28;19.70;;;;;;;11.80;48.42;100660.75;5134118;27;20066;-49
2024/03/21 08:09:13;;;;;;;35.40;19.23;;;;;;;11.83;47.96;100657.88;5133920;27;20262;-48
2024/03/21 08:11:40;;;;;;;35.42;19.98;;;;;;;11.60;47.86;100661.88;5116855;27;20062;-47
2024/03/21 08:14:07;;;;;;;39.60;20.77;;;;;;;11.75;47.80;100652.94;5133760;27;20215;-48
2024/03/21 08:16:35;;;;;;;36.10;18.92;;;;;;;11.43;47.82;100663.69;5133769;27;20500;-49
2024/03/21 08:19:02;;;;;;;38.22;18.67;;;;;;;11.75;47.53;100663.63;5133812;27;20039;-48
2024/03/21 08:21:29;;;;;;;32.83;17.42;;;;;;;11.74;46.60;100675.28;5133671;27;20047;-48
2024/03/21 08:23:56;;;;;;;38.40;19.33;;;;;;;11.91;46.98;100669.84;5133700;27;20103;-47
2024/03/21 08:26:23;;;;;;;40.15;20.08;;;;;;;12.27;46.69;100674.81;5133698;27;20108;-47
2024/03/21 08:28:50;;;;;;;34.50;17.98;;;;;;;12.52;45.93;100665.28;5133548;27;20400;-48
2024/03/21 08:31:16;;;;;;;30.08;17.30;;;;;;;12.38;45.75;100673.31;5135626;27;20089;-49
2024/03/21 08:33:45;;;;;;;32.40;17.13;;;;;;;12.35;45.46;100668.97;5134005;27;20468;-47
2024/03/21 08:36:11;;;;;;;34.15;16.73;;;;;;;12.46;45.34;100660.31;5133394;27;20051;-48
2024/03/21 08:38:38;;;;;;;35.42;16.67;;;;;;;12.31;44.83;100664.78;5132986;27;20491;-47
2024/03/21 08:41:07;;;;;;;29.58;15.65;;;;;;;12.47;44.13;100660.22;5133244;27;20109;-50
2024/03/21 08:43:34;;;;;;;29.38;14.73;;;;;;;12.56;43.41;100661.47;5133614;27;20079;-49
2024/03/21 08:46:00;;;;;;;22.88;12.70;;;;;;;12.49;42.40;100660.13;5134129;27;20062;-49
2024/03/21 08:48:27;;;;;;;23.63;12.07;;;;;;;12.45;41.99;100667.50;5133588;27;20061;-45
2024/03/21 08:50:55;;;;;;;22.13;12.15;;;;;;;12.47;41.97;100670.94;5134278;27;20059;-47
2024/03/21 08:53:22;;;;;;;23.58;12.23;;;;;;;12.51;42.16;100659.06;5133566;27;20457;-46
2024/03/21 08:55:48;;;;;;;23.00;12.20;;;;;;;12.44;42.20;100663.06;5133515;27;20100;-48
2024/03/21 08:58:16;;;;;;;22.33;11.95;;;;;;;12.65;41.91;100666.25;5132867;27;20065;-49
2024/03/21 09:00:45;;;;;;;23.27;12.48;;;;;;;12.73;41.64;100652.38;5133234;27;20354;-48
2024/03/21 09:03:12;;;;;;;23.98;13.18;;;;;;;12.91;41.42;100651.22;5133529;27;20130;-49
2024/03/21 09:05:39;;;;;;;26.65;12.70;;;;;;;12.93;41.89;100649.28;5133770;27;20054;-49
2024/03/21 09:08:11;;;;;;;26.05;13.27;;;;;;;12.99;41.56;100661.44;5133418;27;20472;-46
2024/03/21 09:10:37;;;;;;;23.08;12.95;;;;;;;13.10;41.52;100653.59;5133098;27;20488;-46
2024/03/21 09:13:04;;;;;;;23.92;12.65;;;;;;;13.31;41.34;100646.00;5133375;27;20043;-46
2024/03/21 09:15:31;;;;;;;27.25;13.40;;;;;;;13.45;40.78;100656.69;5132674;27;20062;-48
2024/03/21 09:17:58;;;;;;;26.13;13.10;;;;;;;13.41;40.72;100655.16;5133178;27;20381;-47
2024/03/21 09:20:25;;;;;;;26.55;13.50;;;;;;;13.37;40.89;100659.00;5133044;27;20051;-46
2024/03/21 09:22:52;;;;;;;22.25;12.52;;;;;;;13.26;41.28;100656.19;5132519;27;20049;-48
2024/03/21 09:25:20;;;;;;;25.23;12.70;;;;;;;13.53;41.36;100659.75;5132314;27;20047;-46
2024/03/21 09:27:47;;;;;;;26.83;13.50;;;;;;;13.42;41.54;100659.59;5132056;27;20073;-47
2024/03/21 09:30:14;;;;;;;30.55;13.63;;;;;;;13.64;41.20;100649.16;5131921;27;20463;-47
2024/03/21 09:32:41;;;;;;;23.33;13.07;;;;;;;13.78;41.10;100640.19;5132204;27;20078;-49
2024/03/21 09:35:09;;;;;;;21.90;11.27;;;;;;;13.94;40.52;100642.69;5132209;27;20140;-46
2024/03/21 09:37:36;;;;;;;22.33;12.63;;;;;;;13.94;40.60;100631.97;5132105;27;20043;-47
2024/03/21 09:40:04;;;;;;;24.02;12.27;;;;;;;14.27;40.09;100644.88;5131975;27;20126;-49
2024/03/21 09:42:33;;;;;;;23.33;12.55;;;;;;;14.35;39.81;100641.66;5131821;27;20469;-50
2024/03/21 09:45:01;;;;;;;21.60;12.43;;;;;;;14.36;39.93;100641.56;5132136;27;20088;-46
2024/03/21 09:47:29;;;;;;;23.25;12.95;;;;;;;14.33;39.69;100634.59;5131655;27;20456;-50
2024/03/21 09:49:55;;;;;;;23.05;12.48;;;;;;;14.38;39.80;100630.72;5131852;27;20047;-49
2024/03/21 09:52:23;;;;;;;24.48;12.15;;;;;;;14.43;39.69;100631.25;5131464;27;20150;-46
2024/03/21 09:54:49;;;;;;;26.30;14.25;;;;;;;14.09;39.73;100625.56;5131515;27;20074;-48
2024/03/21 09:57:16;;;;;;;25.27;12.75;;;;;;;14.35;39.31;100617.50;5131409;27;20082;-50
2024/03/21 09:59:44;;;;;;;22.58;12.07;;;;;;;14.52;39.69;100611.84;5131665;27;20039;-46
2024/03/21 10:02:13;;;;;;;26.70;12.95;;;;;;;14.16;39.96;100616.09;5131708;27;20456;-48
2024/03/21 10:04:43;;;;;;;26.58;13.18;;;;;;;14.33;39.75;100607.75;5131332;27;20191;-49
2024/03/21 10:07:20;;;;;;;24.00;13.85;;;;;;;14.35;39.50;100618.38;5130572;27;20047;-50
2024/03/21 10:09:54;;;;;;;23.65;13.05;;;;;;;14.52;39.25;100609.16;5131365;27;20456;-47
2024/03/21 10:12:22;;;;;;;22.65;12.45;;;;;;;14.76;39.31;100609.22;5131469;27;20043;-47
2024/03/21 10:14:53;;;;;;;24.02;12.98;;;;;;;14.52;39.04;100607.34;5131192;27;20180;-46
2024/03/21 10:17:20;;;;;;;25.38;13.60;;;;;;;14.40;39.09;100612.69;5131343;27;20062;-46
2024/03/21 10:19:46;;;;;;;25.23;12.82;;;;;;;14.45;38.88;100610.56;5131757;27;20047;-48
2024/03/21 10:22:19;;;;;;;23.08;12.82;;;;;;;14.55;38.66;100607.13;5131658;27;20047;-49
2024/03/21 10:24:51;;;;;;;24.42;12.07;;;;;;;15.04;38.21;100605.41;5131794;27;20067;-49
2024/03/21 10:27:19;;;;;;;24.02;12.70;;;;;;;15.06;37.95;100600.81;5131513;27;20564;-48
2024/03/21 10:29:46;;;;;;;23.45;12.40;;;;;;;15.00;37.82;100601.25;5131444;27;20211;-47
2024/03/21 10:32:18;;;;;;;22.85;12.50;;;;;;;15.07;37.91;100597.16;5131067;27;20410;-49
2024/03/21 10:34:48;;;;;;;25.10;11.93;;;;;;;15.08;37.65;100598.84;5130550;27;20049;-48
2024/03/21 10:37:17;;;;;;;22.05;12.18;;;;;;;15.01;37.56;100597.59;5130475;27;20178;-49
2024/03/21 10:39:43;;;;;;;20.48;11.32;;;;;;;15.33;37.76;100588.00;5130752;27;20356;-47
2024/03/21 10:42:22;;;;;;;22.35;11.88;;;;;;;15.50;37.30;100581.34;5131114;27;20043;-47
2024/03/21 10:44:52;;;;;;;22.48;12.45;;;;;;;15.37;36.97;100584.13;5130785;27;20082;-47
2024/03/21 10:47:21;;;;;;;24.23;12.13;;;;;;;15.42;36.69;100573.88;5130736;27;20055;-48
2024/03/21 10:49:49;;;;;;;21.42;12.93;;;;;;;15.71;36.31;100571.69;5130396;27;20106;-49
2024/03/21 10:52:16;;;;;;;23.70;11.68;;;;;;;15.75;36.10;100572.31;5130784;27;20051;-49
2024/03/21 10:54:43;;;;;;;20.98;11.13;;;;;;;15.69;35.56;100572.78;5130585;27;20082;-47
2024/03/21 10:57:17;;;;;;;25.35;10.63;;;;;;;15.64;35.37;100569.59;5130491;27;20109;-48
2024/03/21 10:59:54;;;;;;;20.60;11.50;;;;;;;15.53;35.46;100567.66;5130516;27;20432;-50
2024/03/21 11:02:26;;;;;;;20.23;11.18;;;;;;;15.73;35.60;100559.00;5130449;27;20134;-49
2024/03/21 11:04:53;;;;;;;20.15;10.43;;;;;;;15.87;35.44;100559.75;5130616;27;20050;-49
2024/03/21 11:07:21;;;;;;;21.45;10.75;;;;;;;15.90;35.54;100555.00;5130501;27;20503;-47
2024/03/21 11:09:49;;;;;;;19.20;10.95;;;;;;;15.70;35.58;100559.22;5130440;27;20065;-48
2024/03/21 11:12:16;;;;;;;20.02;10.07;;;;;;;15.61;35.70;100553.69;5130459;27;20531;-49
2024/03/21 11:14:45;;;;;;;21.38;11.10;;;;;;;15.66;35.65;100546.13;5130434;27;20372;-49
2024/03/21 11:17:14;;;;;;;19.65;10.63;;;;;;;15.63;35.86;100549.03;5130658;27;20134;-47
2024/03/21 11:19:45;;;;;;;22.63;10.47;;;;;;;15.73;35.73;100550.06;5131150;27;20115;-49
2024/03/21 11:22:14;;;;;;;18.25;10.15;;;;;;;15.77;35.48;100550.69;5130582;27;20047;-49